sensor_id;sensor_type;location;lat;lon;timestamp;P1;durP1;ratioP1;P2;durP2;ratioP2
9536;SDS011;4807;48.024;11.726;2023-02-28T00:00:49;3.30;;;1.67;;
9536;SDS011;4807;48.024;11.726;2023-02-28T00:03:57;5.83;;;2.20;;
9536;SDS011;4807;48.024;11.726;2023-02-28T00:07:06;1.90;;;1.63;;
9536;SDS011;4807;48.024;11.726;2023-02-28T00:10:16;4.03;;;1.63;;
9536;SDS011;4807;48.024;11.726;2023-02-28T00:13:29;2.23;;;1.53;;
9536;SDS011;4807;48.024;11.726;2023-02-28T00:16:37;2.13;;;1.50;;
9536;SDS011;4807;48.024;11.726;2023-02-28T00:19:46;2.07;;;1.67;;
9536;SDS011;4807;48.024;11.726;2023-02-28T00:22:55;1.43;;;1.33;;
9536;SDS011;4807;48.024;11.726;2023-02-28T00:26:05;1.70;;;1.40;;
9536;SDS011;4807;48.024;11.726;2023-02-28T00:29:16;2.77;;;1.53;;
9536;SDS011;4807;48.024;11.726;2023-02-28T00:32:24;2.30;;;1.20;;
9536;SDS011;4807;48.024;11.726;2023-02-28T00:35:33;2.07;;;1.73;;
9536;SDS011;4807;48.024;11.726;2023-02-28T00:38:41;3.43;;;2.30;;
9536;SDS011;4807;48.024;11.726;2023-02-28T00:41:51;6.20;;;2.30;;
9536;SDS011;4807;48.024;11.726;2023-02-28T00:44:59;4.20;;;2.07;;
9536;SDS011;4807;48.024;11.726;2023-02-28T00:48:09;3.03;;;2.13;;
9536;SDS011;4807;48.024;11.726;2023-02-28T00:51:18;3.20;;;2.10;;
9536;SDS011;4807;48.024;11.726;2023-02-28T00:54:26;2.57;;;1.73;;
9536;SDS011;4807;48.024;11.726;2023-02-28T00:57:36;3.30;;;2.17;;
9536;SDS011;4807;48.024;11.726;2023-02-28T01:00:44;2.17;;;1.73;;
9536;SDS011;4807;48.024;11.726;2023-02-28T01:03:55;3.40;;;2.20;;
9536;SDS011;4807;48.024;11.726;2023-02-28T01:07:03;2.17;;;1.97;;
9536;SDS011;4807;48.024;11.726;2023-02-28T01:10:12;3.73;;;1.57;;
9536;SDS011;4807;48.024;11.726;2023-02-28T01:13:23;3.23;;;1.83;;
9536;SDS011;4807;48.024;11.726;2023-02-28T01:16:31;2.27;;;1.60;;
9536;SDS011;4807;48.024;11.726;2023-02-28T01:19:42;5.17;;;2.20;;
9536;SDS011;4807;48.024;11.726;2023-02-28T01:22:50;2.43;;;1.90;;
9536;SDS011;4807;48.024;11.726;2023-02-28T01:26:02;4.40;;;1.90;;
9536;SDS011;4807;48.024;11.726;2023-02-28T01:29:13;2.10;;;1.77;;
9536;SDS011;4807;48.024;11.726;2023-02-28T01:32:22;1.63;;;1.53;;
9536;SDS011;4807;48.024;11.726;2023-02-28T01:35:32;2.27;;;1.90;;
9536;SDS011;4807;48.024;11.726;2023-02-28T01:38:40;4.13;;;2.30;;
9536;SDS011;4807;48.024;11.726;2023-02-28T01:41:49;4.60;;;2.10;;
9536;SDS011;4807;48.024;11.726;2023-02-28T01:45:00;3.27;;;2.20;;
9536;SDS011;4807;48.024;11.726;2023-02-28T01:48:26;3.37;;;1.87;;
9536;SDS011;4807;48.024;11.726;2023-02-28T01:51:41;2.07;;;1.50;;
9536;SDS011;4807;48.024;11.726;2023-02-28T01:54:58;3.63;;;1.70;;
9536;SDS011;4807;48.024;11.726;2023-02-28T01:58:10;2.97;;;2.37;;
9536;SDS011;4807;48.024;11.726;2023-02-28T02:01:21;3.47;;;2.57;;
9536;SDS011;4807;48.024;11.726;2023-02-28T02:04:32;3.63;;;1.87;;
9536;SDS011;4807;48.024;11.726;2023-02-28T02:07:54;3.50;;;2.10;;
9536;SDS011;4807;48.024;11.726;2023-02-28T02:11:05;3.27;;;2.17;;
9536;SDS011;4807;48.024;11.726;2023-02-28T02:14:24;3.53;;;2.20;;
9536;SDS011;4807;48.024;11.726;2023-02-28T02:17:50;2.40;;;1.87;;
9536;SDS011;4807;48.024;11.726;2023-02-28T02:25:24;3.00;;;1.87;;
9536;SDS011;4807;48.024;11.726;2023-02-28T02:28:52;4.53;;;1.97;;
9536;SDS011;4807;48.024;11.726;2023-02-28T02:32:28;4.60;;;2.23;;
9536;SDS011;4807;48.024;11.726;2023-02-28T02:36:15;3.20;;;2.23;;
9536;SDS011;4807;48.024;11.726;2023-02-28T02:39:34;3.13;;;2.20;;
9536;SDS011;4807;48.024;11.726;2023-02-28T02:42:55;4.90;;;2.10;;
9536;SDS011;4807;48.024;11.726;2023-02-28T02:46:12;2.50;;;2.23;;
9536;SDS011;4807;48.024;11.726;2023-02-28T02:49:28;3.30;;;2.40;;
9536;SDS011;4807;48.024;11.726;2023-02-28T02:52:43;3.07;;;1.87;;
9536;SDS011;4807;48.024;11.726;2023-02-28T02:55:57;3.97;;;2.87;;
9536;SDS011;4807;48.024;11.726;2023-02-28T02:59:10;3.67;;;2.13;;
9536;SDS011;4807;48.024;11.726;2023-02-28T03:02:27;5.23;;;2.40;;
9536;SDS011;4807;48.024;11.726;2023-02-28T03:05:41;3.00;;;2.63;;
9536;SDS011;4807;48.024;11.726;2023-02-28T03:08:56;3.83;;;2.77;;
9536;SDS011;4807;48.024;11.726;2023-02-28T03:12:04;3.97;;;2.73;;
9536;SDS011;4807;48.024;11.726;2023-02-28T03:15:19;2.20;;;2.00;;
9536;SDS011;4807;48.024;11.726;2023-02-28T03:18:36;5.13;;;2.93;;
9536;SDS011;4807;48.024;11.726;2023-02-28T03:22:04;2.73;;;2.40;;
9536;SDS011;4807;48.024;11.726;2023-02-28T03:25:48;3.50;;;2.13;;
9536;SDS011;4807;48.024;11.726;2023-02-28T03:29:05;2.83;;;2.47;;
9536;SDS011;4807;48.024;11.726;2023-02-28T03:32:24;3.00;;;2.43;;
9536;SDS011;4807;48.024;11.726;2023-02-28T03:35:42;6.33;;;2.47;;
9536;SDS011;4807;48.024;11.726;2023-02-28T03:38:56;3.67;;;2.77;;
9536;SDS011;4807;48.024;11.726;2023-02-28T03:42:11;3.10;;;2.50;;
9536;SDS011;4807;48.024;11.726;2023-02-28T03:45:27;2.87;;;2.43;;
9536;SDS011;4807;48.024;11.726;2023-02-28T03:48:39;4.27;;;2.50;;
9536;SDS011;4807;48.024;11.726;2023-02-28T03:51:51;4.10;;;2.57;;
9536;SDS011;4807;48.024;11.726;2023-02-28T03:55:03;2.97;;;2.40;;
9536;SDS011;4807;48.024;11.726;2023-02-28T03:58:20;3.10;;;2.40;;
9536;SDS011;4807;48.024;11.726;2023-02-28T04:01:38;3.40;;;2.20;;
9536;SDS011;4807;48.024;11.726;2023-02-28T04:04:50;3.63;;;2.30;;
9536;SDS011;4807;48.024;11.726;2023-02-28T04:08:03;5.63;;;2.97;;
9536;SDS011;4807;48.024;11.726;2023-02-28T04:11:16;2.80;;;1.70;;
9536;SDS011;4807;48.024;11.726;2023-02-28T04:14:31;4.47;;;3.20;;
9536;SDS011;4807;48.024;11.726;2023-02-28T04:17:39;4.30;;;2.80;;
9536;SDS011;4807;48.024;11.726;2023-02-28T04:20:47;3.07;;;2.20;;
9536;SDS011;4807;48.024;11.726;2023-02-28T04:23:56;5.37;;;3.10;;
9536;SDS011;4807;48.024;11.726;2023-02-28T04:27:08;5.23;;;3.20;;
9536;SDS011;4807;48.024;11.726;2023-02-28T04:30:18;5.17;;;3.27;;
9536;SDS011;4807;48.024;11.726;2023-02-28T04:33:26;8.13;;;3.73;;
9536;SDS011;4807;48.024;11.726;2023-02-28T04:36:35;4.47;;;3.37;;
9536;SDS011;4807;48.024;11.726;2023-02-28T04:39:43;4.77;;;3.30;;
9536;SDS011;4807;48.024;11.726;2023-02-28T04:42:52;3.83;;;3.00;;
9536;SDS011;4807;48.024;11.726;2023-02-28T04:46:03;5.00;;;3.10;;
9536;SDS011;4807;48.024;11.726;2023-02-28T04:49:13;3.73;;;2.77;;
9536;SDS011;4807;48.024;11.726;2023-02-28T04:52:21;2.30;;;1.97;;
9536;SDS011;4807;48.024;11.726;2023-02-28T04:55:30;3.67;;;2.70;;
9536;SDS011;4807;48.024;11.726;2023-02-28T04:58:38;3.87;;;2.43;;
9536;SDS011;4807;48.024;11.726;2023-02-28T05:01:48;3.53;;;2.13;;
9536;SDS011;4807;48.024;11.726;2023-02-28T05:04:57;3.97;;;2.57;;
9536;SDS011;4807;48.024;11.726;2023-02-28T05:08:05;7.33;;;2.90;;
9536;SDS011;4807;48.024;11.726;2023-02-28T05:11:15;3.57;;;2.63;;
9536;SDS011;4807;48.024;11.726;2023-02-28T05:14:25;6.03;;;2.63;;
9536;SDS011;4807;48.024;11.726;2023-02-28T05:17:35;5.07;;;2.53;;
9536;SDS011;4807;48.024;11.726;2023-02-28T05:20:43;5.37;;;2.97;;
9536;SDS011;4807;48.024;11.726;2023-02-28T05:23:52;3.40;;;3.10;;
9536;SDS011;4807;48.024;11.726;2023-02-28T05:27:02;3.77;;;2.50;;
9536;SDS011;4807;48.024;11.726;2023-02-28T05:30:10;5.77;;;3.50;;
9536;SDS011;4807;48.024;11.726;2023-02-28T05:33:21;9.33;;;4.80;;
9536;SDS011;4807;48.024;11.726;2023-02-28T05:36:29;7.90;;;5.10;;
9536;SDS011;4807;48.024;11.726;2023-02-28T05:39:42;11.47;;;5.37;;
9536;SDS011;4807;48.024;11.726;2023-02-28T05:42:50;6.47;;;3.87;;
9536;SDS011;4807;48.024;11.726;2023-02-28T05:45:58;7.27;;;3.60;;
9536;SDS011;4807;48.024;11.726;2023-02-28T05:49:10;6.63;;;4.00;;
9536;SDS011;4807;48.024;11.726;2023-02-28T05:52:18;5.50;;;3.80;;
9536;SDS011;4807;48.024;11.726;2023-02-28T05:55:27;10.00;;;5.03;;
9536;SDS011;4807;48.024;11.726;2023-02-28T05:58:35;6.20;;;4.37;;
9536;SDS011;4807;48.024;11.726;2023-02-28T06:01:44;5.70;;;4.30;;
9536;SDS011;4807;48.024;11.726;2023-02-28T06:04:56;6.77;;;4.53;;
9536;SDS011;4807;48.024;11.726;2023-02-28T06:08:04;5.93;;;4.83;;
9536;SDS011;4807;48.024;11.726;2023-02-28T06:11:13;9.20;;;5.67;;
9536;SDS011;4807;48.024;11.726;2023-02-28T06:14:21;7.50;;;4.60;;
9536;SDS011;4807;48.024;11.726;2023-02-28T06:17:30;8.87;;;5.33;;
9536;SDS011;4807;48.024;11.726;2023-02-28T06:20:39;9.03;;;5.20;;
9536;SDS011;4807;48.024;11.726;2023-02-28T06:23:49;10.77;;;6.13;;
9536;SDS011;4807;48.024;11.726;2023-02-28T06:26:57;11.10;;;6.20;;
9536;SDS011;4807;48.024;11.726;2023-02-28T06:30:11;9.70;;;6.50;;
9536;SDS011;4807;48.024;11.726;2023-02-28T06:33:20;11.27;;;6.97;;
9536;SDS011;4807;48.024;11.726;2023-02-28T06:36:30;10.90;;;7.33;;
9536;SDS011;4807;48.024;11.726;2023-02-28T06:39:38;13.10;;;7.37;;
9536;SDS011;4807;48.024;11.726;2023-02-28T06:42:47;13.30;;;8.20;;
9536;SDS011;4807;48.024;11.726;2023-02-28T06:45:55;15.90;;;8.47;;
9536;SDS011;4807;48.024;11.726;2023-02-28T06:49:04;15.10;;;7.97;;
9536;SDS011;4807;48.024;11.726;2023-02-28T06:52:16;13.57;;;8.73;;
9536;SDS011;4807;48.024;11.726;2023-02-28T06:55:25;15.13;;;9.70;;
9536;SDS011;4807;48.024;11.726;2023-02-28T06:58:35;16.50;;;10.13;;
9536;SDS011;4807;48.024;11.726;2023-02-28T07:01:45;16.43;;;9.60;;
9536;SDS011;4807;48.024;11.726;2023-02-28T07:04:53;15.03;;;10.87;;
9536;SDS011;4807;48.024;11.726;2023-02-28T07:08:03;15.40;;;9.67;;
9536;SDS011;4807;48.024;11.726;2023-02-28T07:11:13;16.90;;;10.20;;
9536;SDS011;4807;48.024;11.726;2023-02-28T07:14:21;14.17;;;9.97;;
9536;SDS011;4807;48.024;11.726;2023-02-28T07:17:29;17.17;;;9.70;;
9536;SDS011;4807;48.024;11.726;2023-02-28T07:20:38;13.90;;;8.17;;
9536;SDS011;4807;48.024;11.726;2023-02-28T07:23:48;11.77;;;8.20;;
9536;SDS011;4807;48.024;11.726;2023-02-28T07:26:56;11.90;;;8.97;;
9536;SDS011;4807;48.024;11.726;2023-02-28T07:30:06;13.93;;;8.53;;
9536;SDS011;4807;48.024;11.726;2023-02-28T07:33:15;13.03;;;8.63;;
9536;SDS011;4807;48.024;11.726;2023-02-28T07:36:25;12.80;;;8.87;;
9536;SDS011;4807;48.024;11.726;2023-02-28T07:39:35;12.67;;;8.53;;
9536;SDS011;4807;48.024;11.726;2023-02-28T07:42:43;13.97;;;8.97;;
9536;SDS011;4807;48.024;11.726;2023-02-28T07:45:55;11.93;;;8.50;;
9536;SDS011;4807;48.024;11.726;2023-02-28T07:49:09;12.97;;;8.77;;
9536;SDS011;4807;48.024;11.726;2023-02-28T07:52:18;10.23;;;7.57;;
9536;SDS011;4807;48.024;11.726;2023-02-28T07:55:28;12.37;;;8.57;;
9536;SDS011;4807;48.024;11.726;2023-02-28T07:58:36;11.43;;;8.47;;
9536;SDS011;4807;48.024;11.726;2023-02-28T08:01:44;11.47;;;8.60;;
9536;SDS011;4807;48.024;11.726;2023-02-28T08:04:52;12.83;;;9.23;;
9536;SDS011;4807;48.024;11.726;2023-02-28T08:08:01;13.83;;;8.07;;
9536;SDS011;4807;48.024;11.726;2023-02-28T08:11:11;11.97;;;8.70;;
9536;SDS011;4807;48.024;11.726;2023-02-28T08:14:20;10.17;;;8.03;;
9536;SDS011;4807;48.024;11.726;2023-02-28T08:17:30;11.47;;;8.23;;
9536;SDS011;4807;48.024;11.726;2023-02-28T08:20:40;9.90;;;7.97;;
9536;SDS011;4807;48.024;11.726;2023-02-28T08:23:49;10.80;;;8.00;;
9536;SDS011;4807;48.024;11.726;2023-02-28T08:26:59;15.73;;;9.10;;
9536;SDS011;4807;48.024;11.726;2023-02-28T08:30:09;11.30;;;7.90;;
9536;SDS011;4807;48.024;11.726;2023-02-28T08:33:20;13.37;;;8.37;;
9536;SDS011;4807;48.024;11.726;2023-02-28T08:36:29;12.97;;;8.57;;
9536;SDS011;4807;48.024;11.726;2023-02-28T08:39:37;10.90;;;8.30;;
9536;SDS011;4807;48.024;11.726;2023-02-28T08:42:47;9.93;;;7.90;;
9536;SDS011;4807;48.024;11.726;2023-02-28T08:45:56;13.87;;;9.67;;
9536;SDS011;4807;48.024;11.726;2023-02-28T08:49:04;12.37;;;7.73;;
9536;SDS011;4807;48.024;11.726;2023-02-28T08:52:13;10.43;;;7.83;;
9536;SDS011;4807;48.024;11.726;2023-02-28T08:55:22;11.53;;;7.63;;
9536;SDS011;4807;48.024;11.726;2023-02-28T08:58:33;11.77;;;7.97;;
9536;SDS011;4807;48.024;11.726;2023-02-28T09:01:42;12.10;;;8.13;;
9536;SDS011;4807;48.024;11.726;2023-02-28T09:04:51;9.83;;;7.97;;
9536;SDS011;4807;48.024;11.726;2023-02-28T09:07:59;11.67;;;8.47;;
9536;SDS011;4807;48.024;11.726;2023-02-28T09:11:08;11.70;;;8.87;;
9536;SDS011;4807;48.024;11.726;2023-02-28T09:14:19;10.07;;;7.97;;
9536;SDS011;4807;48.024;11.726;2023-02-28T09:17:27;12.13;;;8.77;;
9536;SDS011;4807;48.024;11.726;2023-02-28T09:20:37;11.10;;;8.07;;
9536;SDS011;4807;48.024;11.726;2023-02-28T09:23:47;12.40;;;7.90;;
9536;SDS011;4807;48.024;11.726;2023-02-28T09:26:57;15.73;;;8.57;;
9536;SDS011;4807;48.024;11.726;2023-02-28T09:30:12;11.27;;;8.17;;
9536;SDS011;4807;48.024;11.726;2023-02-28T09:33:21;11.10;;;8.07;;
9536;SDS011;4807;48.024;11.726;2023-02-28T09:36:31;10.17;;;7.80;;
9536;SDS011;4807;48.024;11.726;2023-02-28T09:39:50;11.33;;;7.83;;
9536;SDS011;4807;48.024;11.726;2023-02-28T09:42:59;10.97;;;8.53;;
9536;SDS011;4807;48.024;11.726;2023-02-28T09:46:11;12.90;;;8.13;;
9536;SDS011;4807;48.024;11.726;2023-02-28T09:49:34;9.90;;;8.13;;
9536;SDS011;4807;48.024;11.726;2023-02-28T09:52:48;11.47;;;8.93;;
9536;SDS011;4807;48.024;11.726;2023-02-28T09:55:58;13.30;;;8.20;;
9536;SDS011;4807;48.024;11.726;2023-02-28T09:59:14;12.97;;;8.33;;
9536;SDS011;4807;48.024;11.726;2023-02-28T10:02:48;11.70;;;8.73;;
9536;SDS011;4807;48.024;11.726;2023-02-28T10:06:28;12.27;;;8.53;;
9536;SDS011;4807;48.024;11.726;2023-02-28T10:09:43;11.13;;;8.47;;
9536;SDS011;4807;48.024;11.726;2023-02-28T10:12:57;13.73;;;8.27;;
9536;SDS011;4807;48.024;11.726;2023-02-28T10:16:10;15.63;;;8.77;;
9536;SDS011;4807;48.024;11.726;2023-02-28T10:19:26;13.20;;;8.07;;
9536;SDS011;4807;48.024;11.726;2023-02-28T10:22:44;9.60;;;7.90;;
9536;SDS011;4807;48.024;11.726;2023-02-28T10:26:08;10.30;;;7.93;;
9536;SDS011;4807;48.024;11.726;2023-02-28T10:29:22;12.60;;;8.77;;
9536;SDS011;4807;48.024;11.726;2023-02-28T10:32:32;12.13;;;8.30;;
9536;SDS011;4807;48.024;11.726;2023-02-28T10:35:44;10.37;;;8.83;;
9536;SDS011;4807;48.024;11.726;2023-02-28T10:38:53;12.90;;;8.80;;
9536;SDS011;4807;48.024;11.726;2023-02-28T10:42:02;11.23;;;8.17;;
9536;SDS011;4807;48.024;11.726;2023-02-28T10:45:12;10.17;;;8.30;;
9536;SDS011;4807;48.024;11.726;2023-02-28T10:48:26;12.60;;;9.13;;
9536;SDS011;4807;48.024;11.726;2023-02-28T10:51:42;11.93;;;8.17;;
9536;SDS011;4807;48.024;11.726;2023-02-28T10:54:50;10.33;;;8.47;;
9536;SDS011;4807;48.024;11.726;2023-02-28T10:58:27;14.77;;;9.57;;
9536;SDS011;4807;48.024;11.726;2023-02-28T11:01:39;14.20;;;9.27;;
9536;SDS011;4807;48.024;11.726;2023-02-28T11:04:54;10.13;;;7.87;;
9536;SDS011;4807;48.024;11.726;2023-02-28T11:08:06;14.60;;;9.77;;
9536;SDS011;4807;48.024;11.726;2023-02-28T11:11:22;12.23;;;8.40;;
9536;SDS011;4807;48.024;11.726;2023-02-28T11:14:35;13.70;;;8.30;;
9536;SDS011;4807;48.024;11.726;2023-02-28T11:17:56;13.13;;;9.83;;
9536;SDS011;4807;48.024;11.726;2023-02-28T11:21:08;11.37;;;8.87;;
9536;SDS011;4807;48.024;11.726;2023-02-28T11:24:27;11.20;;;8.60;;
9536;SDS011;4807;48.024;11.726;2023-02-28T11:27:45;10.47;;;8.83;;
9536;SDS011;4807;48.024;11.726;2023-02-28T11:31:00;13.30;;;9.77;;
9536;SDS011;4807;48.024;11.726;2023-02-28T11:34:23;13.37;;;9.67;;
9536;SDS011;4807;48.024;11.726;2023-02-28T11:37:34;15.10;;;8.77;;
9536;SDS011;4807;48.024;11.726;2023-02-28T11:40:46;11.67;;;9.10;;
9536;SDS011;4807;48.024;11.726;2023-02-28T11:44:09;13.80;;;9.93;;
9536;SDS011;4807;48.024;11.726;2023-02-28T11:47:45;11.27;;;8.40;;
9536;SDS011;4807;48.024;11.726;2023-02-28T11:51:07;12.43;;;9.37;;
9536;SDS011;4807;48.024;11.726;2023-02-28T11:54:50;14.40;;;9.80;;
9536;SDS011;4807;48.024;11.726;2023-02-28T11:58:29;14.40;;;9.47;;
9536;SDS011;4807;48.024;11.726;2023-02-28T12:05:44;14.13;;;9.20;;
9536;SDS011;4807;48.024;11.726;2023-02-28T12:09:03;14.50;;;10.57;;
9536;SDS011;4807;48.024;11.726;2023-02-28T12:12:32;11.37;;;8.57;;
9536;SDS011;4807;48.024;11.726;2023-02-28T12:16:00;12.20;;;9.37;;
9536;SDS011;4807;48.024;11.726;2023-02-28T12:19:39;12.83;;;9.57;;
9536;SDS011;4807;48.024;11.726;2023-02-28T12:23:08;14.67;;;9.43;;
9536;SDS011;4807;48.024;11.726;2023-02-28T12:26:55;15.87;;;9.93;;
9536;SDS011;4807;48.024;11.726;2023-02-28T12:30:13;10.83;;;8.87;;
9536;SDS011;4807;48.024;11.726;2023-02-28T12:37:31;11.90;;;9.33;;
9536;SDS011;4807;48.024;11.726;2023-02-28T12:40:48;12.67;;;9.13;;
9536;SDS011;4807;48.024;11.726;2023-02-28T12:44:03;13.33;;;9.53;;
9536;SDS011;4807;48.024;11.726;2023-02-28T12:47:19;10.70;;;9.03;;
9536;SDS011;4807;48.024;11.726;2023-02-28T12:50:27;12.50;;;9.17;;
9536;SDS011;4807;48.024;11.726;2023-02-28T12:53:42;13.73;;;10.03;;
9536;SDS011;4807;48.024;11.726;2023-02-28T12:57:06;11.50;;;9.13;;
9536;SDS011;4807;48.024;11.726;2023-02-28T13:00:24;11.73;;;9.33;;
9536;SDS011;4807;48.024;11.726;2023-02-28T13:03:50;12.97;;;8.87;;
9536;SDS011;4807;48.024;11.726;2023-02-28T13:07:42;12.63;;;9.50;;
9536;SDS011;4807;48.024;11.726;2023-02-28T13:11:30;11.07;;;9.47;;
9536;SDS011;4807;48.024;11.726;2023-02-28T13:14:41;12.37;;;9.67;;
9536;SDS011;4807;48.024;11.726;2023-02-28T13:17:51;12.13;;;8.90;;
9536;SDS011;4807;48.024;11.726;2023-02-28T13:21:02;12.83;;;9.20;;
9536;SDS011;4807;48.024;11.726;2023-02-28T13:24:36;12.13;;;9.37;;
9536;SDS011;4807;48.024;11.726;2023-02-28T13:27:53;17.03;;;9.80;;
9536;SDS011;4807;48.024;11.726;2023-02-28T13:31:07;10.60;;;9.40;;
9536;SDS011;4807;48.024;11.726;2023-02-28T13:34:15;13.80;;;9.13;;
9536;SDS011;4807;48.024;11.726;2023-02-28T13:37:32;10.17;;;8.60;;
9536;SDS011;4807;48.024;11.726;2023-02-28T13:40:48;12.77;;;9.27;;
9536;SDS011;4807;48.024;11.726;2023-02-28T13:44:02;10.67;;;8.57;;
9536;SDS011;4807;48.024;11.726;2023-02-28T13:50:43;12.50;;;8.67;;
9536;SDS011;4807;48.024;11.726;2023-02-28T13:53:56;11.47;;;8.47;;
9536;SDS011;4807;48.024;11.726;2023-02-28T13:57:19;13.63;;;9.00;;
9536;SDS011;4807;48.024;11.726;2023-02-28T14:00:48;13.73;;;9.97;;
9536;SDS011;4807;48.024;11.726;2023-02-28T14:04:33;15.87;;;9.83;;
9536;SDS011;4807;48.024;11.726;2023-02-28T14:08:08;12.60;;;10.03;;
9536;SDS011;4807;48.024;11.726;2023-02-28T14:11:26;14.30;;;9.40;;
9536;SDS011;4807;48.024;11.726;2023-02-28T14:14:55;11.70;;;9.67;;
9536;SDS011;4807;48.024;11.726;2023-02-28T14:18:10;11.90;;;9.47;;
9536;SDS011;4807;48.024;11.726;2023-02-28T14:21:35;13.63;;;9.90;;
9536;SDS011;4807;48.024;11.726;2023-02-28T14:25:00;11.87;;;9.93;;
9536;SDS011;4807;48.024;11.726;2023-02-28T14:28:26;11.67;;;9.47;;
9536;SDS011;4807;48.024;11.726;2023-02-28T14:31:58;13.80;;;9.70;;
9536;SDS011;4807;48.024;11.726;2023-02-28T14:35:18;11.70;;;9.40;;
9536;SDS011;4807;48.024;11.726;2023-02-28T14:38:45;14.43;;;10.03;;
9536;SDS011;4807;48.024;11.726;2023-02-28T14:41:59;16.87;;;10.23;;
9536;SDS011;4807;48.024;11.726;2023-02-28T14:45:17;9.97;;;8.70;;
9536;SDS011;4807;48.024;11.726;2023-02-28T14:48:26;13.90;;;9.97;;
9536;SDS011;4807;48.024;11.726;2023-02-28T14:51:37;11.97;;;9.97;;
9536;SDS011;4807;48.024;11.726;2023-02-28T14:54:45;13.43;;;9.60;;
9536;SDS011;4807;48.024;11.726;2023-02-28T14:58:00;12.47;;;9.90;;
9536;SDS011;4807;48.024;11.726;2023-02-28T15:01:13;15.97;;;11.03;;
9536;SDS011;4807;48.024;11.726;2023-02-28T15:04:28;14.17;;;9.87;;
9536;SDS011;4807;48.024;11.726;2023-02-28T15:07:39;11.27;;;9.83;;
9536;SDS011;4807;48.024;11.726;2023-02-28T15:10:51;14.30;;;10.50;;
9536;SDS011;4807;48.024;11.726;2023-02-28T15:14:03;14.00;;;9.47;;
9536;SDS011;4807;48.024;11.726;2023-02-28T15:17:14;16.97;;;10.83;;
9536;SDS011;4807;48.024;11.726;2023-02-28T15:20:30;13.73;;;10.20;;
9536;SDS011;4807;48.024;11.726;2023-02-28T15:23:42;11.90;;;9.93;;
9536;SDS011;4807;48.024;11.726;2023-02-28T15:26:58;12.57;;;9.33;;
9536;SDS011;4807;48.024;11.726;2023-02-28T15:30:14;12.73;;;9.47;;
9536;SDS011;4807;48.024;11.726;2023-02-28T15:33:26;13.37;;;10.43;;
9536;SDS011;4807;48.024;11.726;2023-02-28T15:36:36;12.60;;;10.40;;
9536;SDS011;4807;48.024;11.726;2023-02-28T15:39:46;12.33;;;9.87;;
9536;SDS011;4807;48.024;11.726;2023-02-28T15:42:59;12.43;;;10.23;;
9536;SDS011;4807;48.024;11.726;2023-02-28T15:46:12;15.03;;;10.33;;
9536;SDS011;4807;48.024;11.726;2023-02-28T15:49:23;12.13;;;10.27;;
9536;SDS011;4807;48.024;11.726;2023-02-28T15:52:33;14.97;;;11.10;;
9536;SDS011;4807;48.024;11.726;2023-02-28T15:55:53;11.10;;;9.47;;
9536;SDS011;4807;48.024;11.726;2023-02-28T15:59:12;12.93;;;10.33;;
9536;SDS011;4807;48.024;11.726;2023-02-28T16:02:30;14.07;;;10.77;;
9536;SDS011;4807;48.024;11.726;2023-02-28T16:05:40;13.73;;;11.17;;
9536;SDS011;4807;48.024;11.726;2023-02-28T16:08:49;16.37;;;10.50;;
9536;SDS011;4807;48.024;11.726;2023-02-28T16:12:00;13.97;;;10.27;;
9536;SDS011;4807;48.024;11.726;2023-02-28T16:15:17;13.73;;;10.47;;
9536;SDS011;4807;48.024;11.726;2023-02-28T16:18:27;16.47;;;11.53;;
9536;SDS011;4807;48.024;11.726;2023-02-28T16:21:36;14.60;;;10.93;;
9536;SDS011;4807;48.024;11.726;2023-02-28T16:24:44;16.60;;;12.57;;
9536;SDS011;4807;48.024;11.726;2023-02-28T16:27:55;16.77;;;11.23;;
9536;SDS011;4807;48.024;11.726;2023-02-28T16:31:06;14.73;;;10.87;;
9536;SDS011;4807;48.024;11.726;2023-02-28T16:34:18;14.53;;;10.63;;
9536;SDS011;4807;48.024;11.726;2023-02-28T16:37:27;26.77;;;17.60;;
9536;SDS011;4807;48.024;11.726;2023-02-28T16:40:35;25.33;;;17.17;;
9536;SDS011;4807;48.024;11.726;2023-02-28T16:43:46;23.47;;;15.07;;
9536;SDS011;4807;48.024;11.726;2023-02-28T16:46:59;15.87;;;11.97;;
9536;SDS011;4807;48.024;11.726;2023-02-28T16:50:12;18.53;;;12.20;;
9536;SDS011;4807;48.024;11.726;2023-02-28T16:53:23;16.60;;;12.13;;
9536;SDS011;4807;48.024;11.726;2023-02-28T16:56:32;17.63;;;12.43;;
9536;SDS011;4807;48.024;11.726;2023-02-28T16:59:43;22.97;;;15.13;;
9536;SDS011;4807;48.024;11.726;2023-02-28T17:02:51;22.63;;;15.43;;
9536;SDS011;4807;48.024;11.726;2023-02-28T17:06:00;37.23;;;23.30;;
9536;SDS011;4807;48.024;11.726;2023-02-28T17:09:09;43.37;;;26.30;;
9536;SDS011;4807;48.024;11.726;2023-02-28T17:12:29;42.27;;;26.40;;
9536;SDS011;4807;48.024;11.726;2023-02-28T17:15:40;29.10;;;20.97;;
9536;SDS011;4807;48.024;11.726;2023-02-28T17:18:49;20.10;;;13.80;;
9536;SDS011;4807;48.024;11.726;2023-02-28T17:21:58;19.17;;;14.10;;
9536;SDS011;4807;48.024;11.726;2023-02-28T17:25:08;18.33;;;14.53;;
9536;SDS011;4807;48.024;11.726;2023-02-28T17:28:18;19.50;;;13.63;;
9536;SDS011;4807;48.024;11.726;2023-02-28T17:31:29;18.60;;;13.97;;
9536;SDS011;4807;48.024;11.726;2023-02-28T17:34:39;20.87;;;14.43;;
9536;SDS011;4807;48.024;11.726;2023-02-28T17:37:48;18.17;;;12.83;;
9536;SDS011;4807;48.024;11.726;2023-02-28T17:40:57;18.30;;;13.20;;
9536;SDS011;4807;48.024;11.726;2023-02-28T17:44:06;20.17;;;13.67;;
9536;SDS011;4807;48.024;11.726;2023-02-28T17:47:16;26.43;;;17.10;;
9536;SDS011;4807;48.024;11.726;2023-02-28T17:50:25;23.77;;;15.87;;
9536;SDS011;4807;48.024;11.726;2023-02-28T17:53:34;22.97;;;15.33;;
9536;SDS011;4807;48.024;11.726;2023-02-28T17:56:42;28.80;;;16.43;;
9536;SDS011;4807;48.024;11.726;2023-02-28T17:59:50;26.77;;;16.57;;
9536;SDS011;4807;48.024;11.726;2023-02-28T18:03:00;26.70;;;16.47;;
9536;SDS011;4807;48.024;11.726;2023-02-28T18:06:09;23.47;;;15.30;;
9536;SDS011;4807;48.024;11.726;2023-02-28T18:09:26;26.03;;;16.27;;
9536;SDS011;4807;48.024;11.726;2023-02-28T18:12:34;23.57;;;16.47;;
9536;SDS011;4807;48.024;11.726;2023-02-28T18:15:43;22.73;;;14.93;;
9536;SDS011;4807;48.024;11.726;2023-02-28T18:18:55;23.67;;;15.63;;
9536;SDS011;4807;48.024;11.726;2023-02-28T18:22:03;33.47;;;16.10;;
9536;SDS011;4807;48.024;11.726;2023-02-28T18:25:12;23.90;;;15.97;;
9536;SDS011;4807;48.024;11.726;2023-02-28T18:28:22;26.13;;;16.50;;
9536;SDS011;4807;48.024;11.726;2023-02-28T18:31:31;28.27;;;18.83;;
9536;SDS011;4807;48.024;11.726;2023-02-28T18:34:41;28.93;;;17.07;;
9536;SDS011;4807;48.024;11.726;2023-02-28T18:37:50;29.37;;;18.10;;
9536;SDS011;4807;48.024;11.726;2023-02-28T18:40:59;25.97;;;19.47;;
9536;SDS011;4807;48.024;11.726;2023-02-28T18:44:09;27.90;;;19.10;;
9536;SDS011;4807;48.024;11.726;2023-02-28T18:47:26;33.43;;;19.13;;
9536;SDS011;4807;48.024;11.726;2023-02-28T18:50:37;38.70;;;20.50;;
9536;SDS011;4807;48.024;11.726;2023-02-28T18:53:45;30.10;;;20.60;;
9536;SDS011;4807;48.024;11.726;2023-02-28T18:56:54;28.20;;;18.17;;
9536;SDS011;4807;48.024;11.726;2023-02-28T19:00:04;29.37;;;19.13;;
9536;SDS011;4807;48.024;11.726;2023-02-28T19:03:15;33.60;;;21.63;;
9536;SDS011;4807;48.024;11.726;2023-02-28T19:06:25;35.63;;;21.67;;
9536;SDS011;4807;48.024;11.726;2023-02-28T19:09:35;26.67;;;17.10;;
9536;SDS011;4807;48.024;11.726;2023-02-28T19:12:43;22.13;;;14.33;;
9536;SDS011;4807;48.024;11.726;2023-02-28T19:15:59;22.13;;;15.17;;
9536;SDS011;4807;48.024;11.726;2023-02-28T19:19:08;25.97;;;17.00;;
9536;SDS011;4807;48.024;11.726;2023-02-28T19:22:18;26.33;;;16.57;;
9536;SDS011;4807;48.024;11.726;2023-02-28T19:25:26;35.60;;;21.10;;
9536;SDS011;4807;48.024;11.726;2023-02-28T19:28:35;25.83;;;15.73;;
9536;SDS011;4807;48.024;11.726;2023-02-28T19:31:43;28.97;;;17.07;;
9536;SDS011;4807;48.024;11.726;2023-02-28T19:34:52;29.30;;;17.37;;
9536;SDS011;4807;48.024;11.726;2023-02-28T19:38:02;24.63;;;16.30;;
9536;SDS011;4807;48.024;11.726;2023-02-28T19:41:10;24.97;;;16.03;;